Terminal Aerodrome Forecast
Issued by NWS

Home | Current Version | Previous Version | Graphics & Text | Print | Product List | Glossary On
Versions: 1 2 3 4 5 6 7 8 9 10 11 12 13 14 15
000
FTUS43 KGRB 181444 AAA
TAFCWA
TAF AMD
KCWA 181444Z 1815/1912 34010KT 3SM BR OVC004
      TEMPO 1815/1818 P6SM NSW OVC007
     FM181800 33011KT P6SM SCT025 BKN028
     FM190100 31012KT P6SM BKN035=

USA.gov is the U.S. government's official web portal to all federal, state and local government web resources and services.